Аэропорт: Ивано-Франковск. Ивано-Франковск

ICAO: UKLI

METAR:
2018/11/19 10:00
UKLI 191000Z 11004MPS 1200 FZRASN BKN004 BKN016CB M00/M00 Q1020 R10/590340 NOSIG
METAR:
2017/04/23 12:03
TAF 
      AMD TAF 
      AMD UKLI 231200Z 2312/2324 33005G10MPS 9999 BKN020 
      TEMPO 2312/2318 36010G15MPS 2100 -TSRA BKN011CB BKN015 TX10/2313Z TN05/2321Z